createdAt,value
2023-05-18T00:00:21.148Z,18.00
2023-05-18T00:05:26.152Z,18.67
2023-05-18T00:10:31.732Z,31.00
2023-05-18T00:15:36.844Z,15.67
2023-05-18T00:20:42.887Z,14.00
2023-05-18T00:25:47.847Z,18.00
2023-05-18T00:30:57.095Z,18.00
2023-05-18T00:36:02.626Z,22.75
2023-05-18T00:41:07.701Z,22.25
2023-05-18T00:46:13.147Z,23.00
2023-05-18T00:51:18.831Z,20.00
2023-05-18T00:56:26.400Z,18.00
2023-05-18T01:01:35.862Z,23.00
2023-05-18T01:06:44.060Z,16.00
2023-05-18T01:12:02.043Z,16.33
2023-05-18T01:17:41.041Z,15.50
2023-05-18T01:23:11.422Z,17.00
2023-05-18T01:28:20.022Z,14.67
2023-05-18T01:33:26.555Z,25.00
2023-05-18T01:38:32.071Z,18.00
2023-05-18T01:43:39.943Z,16.33
2023-05-18T01:48:50.594Z,25.25
2023-05-18T01:54:02.476Z,17.50
2023-05-18T01:59:07.933Z,21.33
2023-05-18T02:04:14.288Z,15.00
2023-05-18T02:09:19.339Z,15.00
2023-05-18T02:14:25.548Z,15.00
2023-05-18T02:19:34.593Z,14.00
2023-05-18T02:24:40.917Z,18.00
2023-05-18T02:29:45.896Z,17.00
2023-05-18T02:34:54.481Z,14.33
2023-05-18T02:39:59.467Z,7.00
2023-05-18T02:45:04.953Z,9.33
2023-05-18T02:50:10.995Z,12.50
2023-05-18T02:55:16.168Z,12.50
2023-05-18T03:00:33.303Z,14.00
2023-05-18T03:10:42.594Z,12.00
2023-05-18T03:15:48.476Z,13.33
2023-05-18T03:20:54.046Z,17.50
2023-05-18T03:25:59.438Z,12.67
2023-05-18T03:31:06.641Z,16.00
2023-05-18T03:36:14.341Z,15.00
2023-05-18T03:41:20.819Z,10.00
2023-05-18T03:46:27.303Z,8.00
2023-05-18T03:51:33.620Z,15.00
2023-05-18T03:56:39.878Z,15.00
2023-05-18T04:01:45.750Z,12.00
2023-05-18T04:06:52.995Z,13.00
2023-05-18T04:11:57.976Z,14.33
2023-05-18T04:17:07.707Z,12.50
2023-05-18T04:22:13.943Z,17.33
2023-05-18T04:27:18.937Z,14.00
2023-05-18T04:32:28.331Z,13.50
2023-05-18T04:37:34.180Z,14.00
2023-05-18T04:42:46.577Z,14.67
2023-05-18T04:47:54.939Z,5.50
2023-05-18T04:53:03.425Z,8.00
2023-05-18T04:58:09.668Z,14.00
2023-05-18T05:03:15.009Z,8.00
2023-05-18T05:08:20.045Z,6.00
2023-05-18T05:13:25.058Z,6.00
2023-05-18T05:18:30.137Z,6.00
2023-05-18T05:23:35.850Z,11.50
2023-05-18T05:28:41.971Z,7.00
2023-05-18T05:33:47.564Z,8.00
2023-05-18T05:38:52.666Z,5.00
2023-05-18T05:43:58.372Z,4.00
2023-05-18T05:49:04.683Z,8.50
2023-05-18T05:54:10.907Z,6.00
2023-05-18T05:59:16.880Z,6.00
2023-05-18T06:04:22.959Z,4.00
2023-05-18T06:09:29.836Z,6.00
2023-05-18T06:14:35.077Z,7.33
2023-05-18T06:24:45.494Z,4.00
2023-05-18T06:30:13.871Z,2.67
2023-05-18T06:35:48.116Z,6.00
2023-05-18T06:40:53.270Z,7.00
2023-05-18T06:45:58.725Z,5.50
2023-05-18T06:51:13.615Z,9.50
2023-05-18T06:56:20.055Z,8.00
2023-05-18T07:01:26.422Z,6.00
2023-05-18T07:06:35.569Z,8.00
2023-05-18T07:11:41.896Z,4.00
2023-05-18T07:16:48.556Z,6.00
2023-05-18T07:21:54.073Z,2.67
2023-05-18T07:27:00.795Z,4.00
2023-05-18T07:32:06.561Z,12.00
2023-05-18T07:37:12.156Z,6.00
2023-05-18T07:42:18.808Z,12.00
2023-05-18T07:47:29.742Z,11.33
2023-05-18T07:52:35.892Z,6.00
2023-05-18T08:02:47.465Z,10.00
2023-05-18T08:07:53.425Z,6.00
2023-05-18T08:13:02.174Z,10.67
2023-05-18T08:18:11.340Z,8.00
2023-05-18T08:23:16.553Z,10.00
2023-05-18T08:28:22.082Z,10.00
2023-05-18T08:33:30.135Z,11.00
2023-05-18T08:38:36.568Z,8.67
2023-05-18T08:43:48.237Z,10.00
2023-05-18T08:48:57.134Z,11.50
2023-05-18T08:54:10.560Z,13.50
2023-05-18T08:59:20.461Z,10.00
2023-05-18T09:04:26.719Z,6.00
2023-05-18T09:09:32.951Z,6.00
2023-05-18T09:14:38.247Z,17.00
2023-05-18T09:19:43.239Z,8.00
2023-05-18T09:24:48.722Z,14.00
2023-05-18T09:29:58.848Z,17.75
2023-05-18T09:35:11.400Z,12.00
2023-05-18T09:40:17.982Z,15.00
2023-05-18T09:45:30.194Z,11.50
2023-05-18T09:50:36.201Z,14.00
2023-05-18T09:55:50.053Z,12.00
2023-05-18T10:00:58.209Z,16.33
2023-05-18T10:06:14.737Z,9.50
2023-05-18T10:11:23.226Z,16.50
2023-05-18T10:16:28.532Z,15.00
2023-05-18T10:21:38.042Z,15.50
2023-05-18T10:26:45.995Z,12.50
2023-05-18T10:31:55.152Z,14.00
2023-05-18T10:37:06.514Z,18.00
2023-05-18T10:42:13.691Z,16.50
2023-05-18T10:47:22.233Z,14.25
2023-05-18T10:52:33.087Z,15.00
2023-05-18T11:02:45.815Z,18.00
2023-05-18T11:07:51.189Z,15.00
2023-05-18T11:12:56.381Z,23.00
2023-05-18T11:18:21.422Z,23.00
2023-05-18T11:23:26.551Z,29.00
2023-05-18T11:28:31.957Z,18.25
2023-05-18T11:33:39.634Z,20.00
2023-05-18T11:39:12.792Z,22.00
2023-05-18T11:44:20.005Z,22.75
2023-05-18T11:49:28.673Z,15.00
2023-05-18T11:54:41.596Z,24.75
2023-05-18T12:05:04.133Z,14.67
2023-05-18T12:10:15.795Z,14.75
2023-05-18T12:15:26.375Z,14.75
2023-05-18T12:20:32.366Z,11.50
2023-05-18T12:25:38.615Z,17.50
2023-05-18T12:30:45.255Z,8.67
2023-05-18T12:35:50.051Z,8.00
2023-05-18T12:40:56.917Z,4.00
2023-05-18T12:46:07.370Z,14.75
2023-05-18T12:51:20.772Z,12.00
2023-05-18T12:56:28.553Z,12.00
2023-05-18T13:01:45.332Z,8.50
2023-05-18T13:06:50.348Z,11.33
2023-05-18T13:12:07.246Z,11.50
2023-05-18T13:22:19.233Z,10.50
2023-05-18T13:27:27.178Z,12.67
2023-05-18T13:32:32.518Z,12.00
2023-05-18T13:37:37.590Z,12.50
2023-05-18T13:42:42.863Z,15.00
2023-05-18T13:47:52.113Z,11.33
2023-05-18T13:52:57.597Z,17.00
2023-05-18T13:58:02.858Z,10.00
2023-05-18T14:08:13.731Z,8.00
2023-05-18T14:13:19.830Z,15.00
2023-05-18T14:18:25.006Z,14.25
2023-05-18T14:23:31.086Z,13.33
2023-05-18T14:28:37.210Z,9.33
2023-05-18T14:33:42.530Z,5.50
2023-05-18T14:38:47.878Z,12.00
2023-05-18T14:43:55.092Z,9.50
2023-05-18T14:54:04.770Z,10.50
2023-05-18T15:04:16.127Z,13.50
2023-05-18T15:09:22.178Z,15.00
2023-05-18T15:14:27.970Z,15.00
2023-05-18T15:19:33.241Z,13.67
2023-05-18T15:24:38.572Z,14.00
2023-05-18T15:29:43.822Z,15.00
2023-05-18T15:34:52.269Z,15.00
2023-05-18T15:40:00.197Z,15.00
2023-05-18T15:45:06.416Z,16.00
2023-05-18T15:50:12.030Z,27.50
2023-05-18T15:55:16.980Z,17.25
2023-05-18T16:00:24.838Z,14.33
2023-05-18T16:05:30.018Z,15.00
2023-05-18T16:10:34.965Z,15.00
2023-05-18T16:15:40.425Z,15.00
2023-05-18T16:20:46.348Z,13.00
2023-05-18T16:25:51.644Z,20.50
2023-05-18T16:30:56.676Z,17.00
2023-05-18T16:41:07.477Z,15.67
2023-05-18T16:46:15.201Z,15.00
2023-05-18T16:51:20.526Z,14.00
2023-05-18T16:56:26.565Z,17.00
2023-05-18T17:01:32.069Z,14.75
2023-05-18T17:06:37.432Z,14.00
2023-05-18T17:11:42.368Z,15.00
2023-05-18T17:16:48.673Z,17.75
2023-05-18T17:21:53.827Z,14.75
2023-05-18T17:26:58.635Z,18.00
2023-05-18T17:32:03.835Z,18.00
2023-05-18T17:37:08.823Z,17.75
2023-05-18T17:42:13.896Z,18.00
2023-05-18T17:47:19.599Z,22.00
2023-05-18T17:52:24.671Z,27.00
2023-05-18T17:57:30.970Z,22.50
2023-05-18T18:02:35.878Z,15.00
2023-05-18T18:07:41.040Z,20.67
2023-05-18T18:12:46.116Z,17.00
2023-05-18T18:17:51.217Z,17.00
2023-05-18T18:22:56.122Z,21.50
2023-05-18T18:38:11.391Z,18.00
2023-05-18T18:43:17.985Z,14.33
2023-05-18T18:48:23.937Z,15.00
2023-05-18T18:53:29.015Z,15.00
2023-05-18T18:58:34.016Z,15.50
2023-05-18T19:03:38.922Z,15.67
2023-05-18T19:08:44.763Z,14.25
2023-05-18T19:13:49.993Z,17.33
2023-05-18T19:18:55.863Z,20.00
2023-05-18T19:24:00.981Z,16.00
2023-05-18T19:29:06.051Z,20.50
2023-05-18T19:34:10.881Z,18.00
2023-05-18T19:39:18.776Z,17.00
2023-05-18T19:44:23.874Z,17.00
2023-05-18T19:49:30.908Z,27.00
2023-05-18T19:54:38.161Z,23.50
2023-05-18T19:59:44.032Z,22.75
2023-05-18T20:04:49.759Z,15.00
2023-05-18T20:09:55.908Z,19.00
2023-05-18T20:15:00.869Z,24.00
2023-05-18T20:20:07.329Z,22.00
2023-05-18T20:25:13.286Z,20.00
2023-05-18T20:30:18.059Z,21.00
2023-05-18T20:35:23.475Z,26.00
2023-05-18T20:40:32.257Z,30.67
2023-05-18T20:45:37.948Z,25.25
2023-05-18T20:50:42.912Z,22.50
2023-05-18T20:55:49.925Z,29.00
2023-05-18T21:00:57.571Z,26.33
2023-05-18T21:06:03.654Z,29.00
2023-05-18T21:11:08.921Z,28.33
2023-05-18T21:21:21.048Z,23.00
2023-05-18T21:26:26.954Z,31.50
2023-05-18T21:31:32.869Z,29.00
2023-05-18T21:36:38.034Z,18.00
2023-05-18T21:41:44.890Z,22.75
2023-05-18T21:46:50.048Z,32.00
2023-05-18T21:56:59.701Z,20.00
2023-05-18T22:02:04.919Z,22.00
2023-05-18T22:07:11.040Z,25.50
2023-05-18T22:12:15.808Z,30.25
2023-05-18T22:27:35.019Z,27.00
2023-05-18T22:32:40.695Z,22.00
2023-05-18T22:37:45.652Z,23.50
2023-05-18T22:42:50.727Z,26.00
2023-05-18T22:47:55.779Z,30.00
2023-05-18T22:53:00.699Z,27.00
2023-05-18T22:58:05.912Z,22.67
2023-05-18T23:03:10.974Z,22.00
2023-05-18T23:08:16.702Z,17.25
2023-05-18T23:18:27.884Z,22.00
2023-05-18T23:23:34.054Z,15.00
2023-05-18T23:28:39.225Z,22.00
2023-05-18T23:33:44.555Z,26.00
2023-05-18T23:38:52.692Z,18.00
2023-05-18T23:43:58.727Z,24.25
2023-05-18T23:49:04.141Z,29.00
2023-05-18T23:54:09.352Z,21.00
2023-05-18T23:59:17.274Z,37.67
